createdAt,value
2022-07-29T00:00:23.289Z,1.20
2022-07-29T00:01:19.395Z,1.20
2022-07-29T00:02:11.627Z,1.05
2022-07-29T00:03:03.475Z,0.85
2022-07-29T00:03:55.259Z,1.02
2022-07-29T00:04:46.945Z,1.00
2022-07-29T00:05:42.237Z,1.00
2022-07-29T00:06:33.858Z,1.20
2022-07-29T00:07:25.629Z,0.88
2022-07-29T00:08:17.330Z,0.93
2022-07-29T00:09:09.210Z,1.05
2022-07-29T00:10:00.868Z,1.10
2022-07-29T00:10:52.553Z,1.10
2022-07-29T00:11:44.460Z,1.02
2022-07-29T00:12:36.921Z,1.00
2022-07-29T00:13:32.171Z,0.80
2022-07-29T00:14:24.372Z,1.00
2022-07-29T00:15:16.460Z,0.90
2022-07-29T00:16:08.159Z,1.00
2022-07-29T00:16:59.797Z,1.13
2022-07-29T00:17:51.426Z,1.08
2022-07-29T00:18:43.076Z,1.00
2022-07-29T00:19:35.333Z,1.00
2022-07-29T00:20:27.092Z,0.80
2022-07-29T00:21:18.824Z,0.80
2022-07-29T00:22:10.465Z,1.10
2022-07-29T00:23:02.049Z,1.10
2022-07-29T00:23:53.657Z,1.05
2022-07-29T00:24:45.306Z,0.88
2022-07-29T00:25:37.006Z,1.10
2022-07-29T00:26:32.716Z,0.80
2022-07-29T00:27:24.479Z,0.82
2022-07-29T00:28:16.073Z,1.08
2022-07-29T00:29:33.157Z,0.93
2022-07-29T00:30:19.358Z,1.00
2022-07-29T00:31:11.033Z,1.17
2022-07-29T00:32:03.835Z,1.00
2022-07-29T00:32:55.569Z,0.90
2022-07-29T00:33:47.196Z,0.90
2022-07-29T00:34:57.607Z,0.85
2022-07-29T00:35:49.293Z,1.02
2022-07-29T00:36:40.878Z,1.00
2022-07-29T00:37:33.105Z,1.00
2022-07-29T00:38:24.762Z,0.98
2022-07-29T00:39:16.378Z,1.05
2022-07-29T00:40:08.619Z,1.10
2022-07-29T00:41:00.362Z,0.93
2022-07-29T00:41:52.202Z,1.02
2022-07-29T00:42:46.004Z,1.15
2022-07-29T00:43:37.625Z,0.82
2022-07-29T00:44:29.218Z,1.02
2022-07-29T00:45:21.149Z,1.08
2022-07-29T00:46:12.877Z,1.02
2022-07-29T00:47:04.839Z,1.00
2022-07-29T00:47:56.708Z,0.90
2022-07-29T00:48:48.421Z,1.10
2022-07-29T00:49:40.946Z,1.00
2022-07-29T00:50:33.320Z,0.90
2022-07-29T00:51:26.634Z,1.00
2022-07-29T00:52:18.785Z,1.10
2022-07-29T00:53:12.453Z,0.88
2022-07-29T00:54:04.581Z,0.88
2022-07-29T00:54:56.652Z,0.95
2022-07-29T00:55:48.508Z,0.82
2022-07-29T00:56:40.421Z,0.85
2022-07-29T00:57:32.182Z,1.10
2022-07-29T00:58:24.753Z,1.00
2022-07-29T00:59:16.394Z,0.90
2022-07-29T01:00:09.262Z,1.08
2022-07-29T01:01:01.032Z,0.98
2022-07-29T01:01:52.834Z,1.00
2022-07-29T01:02:45.019Z,1.02
2022-07-29T01:03:36.628Z,0.80
2022-07-29T01:04:28.297Z,1.00
2022-07-29T01:05:22.291Z,0.90
2022-07-29T01:06:14.086Z,1.00
2022-07-29T01:07:05.939Z,1.00
2022-07-29T01:07:58.526Z,0.90
2022-07-29T01:08:50.573Z,1.10
2022-07-29T01:09:46.828Z,0.93
2022-07-29T01:10:39.477Z,0.93
2022-07-29T01:11:31.078Z,0.95
2022-07-29T01:12:25.617Z,1.00
2022-07-29T01:13:17.578Z,0.90
2022-07-29T01:14:09.620Z,1.00
2022-07-29T01:15:01.798Z,1.10
2022-07-29T01:16:00.140Z,0.85
2022-07-29T01:17:11.632Z,0.93
2022-07-29T01:18:11.644Z,1.00
2022-07-29T01:19:24.966Z,1.10
2022-07-29T01:20:22.827Z,0.88
2022-07-29T01:21:23.242Z,1.00
2022-07-29T01:22:20.999Z,1.00
2022-07-29T01:23:25.133Z,0.90
2022-07-29T01:24:28.842Z,1.00
2022-07-29T01:25:38.854Z,0.90
2022-07-29T01:26:30.526Z,0.90
2022-07-29T01:27:42.675Z,0.90
2022-07-29T01:28:35.997Z,1.00
2022-07-29T01:29:38.721Z,1.05
2022-07-29T01:30:33.683Z,0.90
2022-07-29T01:31:33.018Z,1.20
2022-07-29T01:32:30.030Z,0.90
2022-07-29T01:33:55.517Z,0.90
2022-07-29T01:34:47.105Z,0.98
2022-07-29T01:35:41.856Z,1.00
2022-07-29T01:36:38.346Z,0.90
2022-07-29T01:37:33.950Z,0.95
2022-07-29T01:38:26.783Z,0.93
2022-07-29T01:39:20.910Z,0.90
2022-07-29T01:40:19.841Z,1.10
2022-07-29T01:41:13.759Z,0.90
2022-07-29T01:42:19.859Z,0.90
2022-07-29T01:43:12.536Z,0.95
2022-07-29T01:44:11.325Z,0.90
2022-07-29T01:45:13.615Z,1.00
2022-07-29T01:46:06.914Z,1.08
2022-07-29T01:47:00.898Z,0.90
2022-07-29T01:48:01.222Z,0.80
2022-07-29T01:48:58.225Z,1.10
2022-07-29T01:49:54.091Z,1.08
2022-07-29T01:50:50.573Z,0.93
2022-07-29T01:51:48.974Z,0.93
2022-07-29T01:52:47.641Z,0.82
2022-07-29T01:53:43.757Z,1.02
2022-07-29T01:54:44.053Z,0.95
2022-07-29T01:55:41.665Z,0.90
2022-07-29T01:56:34.798Z,0.90
2022-07-29T01:57:29.370Z,0.98
2022-07-29T01:58:21.397Z,1.00
2022-07-29T01:59:13.417Z,1.15
2022-07-29T02:00:06.353Z,0.90
2022-07-29T02:01:00.120Z,1.08
2022-07-29T02:01:54.394Z,0.90
2022-07-29T02:02:48.449Z,0.90
2022-07-29T02:03:40.637Z,0.90
2022-07-29T02:04:34.727Z,0.90
2022-07-29T02:05:28.500Z,1.10
2022-07-29T02:06:22.062Z,0.90
2022-07-29T02:07:15.383Z,1.00
2022-07-29T02:08:07.805Z,1.10
2022-07-29T02:08:59.737Z,1.00
2022-07-29T02:09:51.907Z,1.10
2022-07-29T02:10:43.806Z,1.10
2022-07-29T02:11:37.018Z,0.93
2022-07-29T02:12:29.284Z,0.90
2022-07-29T02:13:21.868Z,1.00
2022-07-29T02:14:15.106Z,0.95
2022-07-29T02:15:11.438Z,0.98
2022-07-29T02:16:04.092Z,1.00
2022-07-29T02:16:57.162Z,0.98
2022-07-29T02:17:55.478Z,1.00
2022-07-29T02:18:49.257Z,0.90
2022-07-29T02:19:43.022Z,0.98
2022-07-29T02:20:34.983Z,0.90
2022-07-29T02:21:27.086Z,0.98
2022-07-29T02:22:20.084Z,1.05
2022-07-29T02:23:12.873Z,0.90
2022-07-29T02:24:05.294Z,0.90
2022-07-29T02:24:58.290Z,1.10
2022-07-29T02:26:01.634Z,0.90
2022-07-29T02:26:54.429Z,0.95
2022-07-29T02:27:46.849Z,0.88
2022-07-29T02:28:40.337Z,1.10
2022-07-29T02:29:32.933Z,1.00
2022-07-29T02:30:25.143Z,0.90
2022-07-29T02:31:19.617Z,0.90
2022-07-29T02:32:12.014Z,1.10
2022-07-29T02:33:05.317Z,1.10
2022-07-29T02:33:57.234Z,1.00
2022-07-29T02:34:49.116Z,1.02
2022-07-29T02:35:41.780Z,0.90
2022-07-29T02:36:36.865Z,0.90
2022-07-29T02:37:30.216Z,1.00
2022-07-29T02:38:53.224Z,1.00
2022-07-29T02:39:45.968Z,0.90
2022-07-29T02:40:39.324Z,1.00
2022-07-29T02:41:41.388Z,0.82
2022-07-29T02:42:33.753Z,1.10
2022-07-29T02:43:25.933Z,0.90
2022-07-29T02:44:21.318Z,1.05
2022-07-29T02:45:12.948Z,1.00
2022-07-29T02:46:12.778Z,1.08
2022-07-29T02:47:22.253Z,1.00
2022-07-29T02:48:16.267Z,1.00
2022-07-29T02:49:20.186Z,0.90
2022-07-29T02:50:18.724Z,0.88
2022-07-29T02:51:41.493Z,0.80
2022-07-29T02:52:28.942Z,1.00
2022-07-29T02:53:23.774Z,0.80
2022-07-29T02:54:47.904Z,0.95
2022-07-29T02:55:46.100Z,0.88
2022-07-29T02:56:39.425Z,0.93
2022-07-29T02:57:54.358Z,0.90
2022-07-29T02:58:56.127Z,1.00
2022-07-29T02:59:49.064Z,1.10
2022-07-29T03:00:41.665Z,0.90
2022-07-29T03:01:34.839Z,1.10
2022-07-29T03:02:27.909Z,0.80
2022-07-29T03:03:20.202Z,1.00
2022-07-29T03:04:13.227Z,1.02
2022-07-29T03:05:07.670Z,0.68
2022-07-29T03:06:02.225Z,0.95
2022-07-29T03:06:54.097Z,0.90
2022-07-29T03:08:05.509Z,1.00
2022-07-29T03:08:57.710Z,0.88
2022-07-29T03:09:50.724Z,0.80
2022-07-29T03:10:44.471Z,0.82
2022-07-29T03:11:46.120Z,1.20
2022-07-29T03:12:42.501Z,0.93
2022-07-29T03:13:34.349Z,1.00
2022-07-29T03:14:26.764Z,1.10
2022-07-29T03:15:18.765Z,1.00
2022-07-29T03:16:10.961Z,0.90
2022-07-29T03:17:03.175Z,0.75
2022-07-29T03:17:56.756Z,0.90
2022-07-29T03:18:48.804Z,0.95
2022-07-29T03:19:46.514Z,1.00
2022-07-29T03:20:39.255Z,0.88
2022-07-29T03:21:39.868Z,1.00
2022-07-29T03:23:27.816Z,0.93
2022-07-29T03:24:25.748Z,1.10
2022-07-29T03:25:18.497Z,0.95
2022-07-29T03:26:10.118Z,0.90
2022-07-29T03:27:02.053Z,0.90
2022-07-29T03:27:53.703Z,0.95
2022-07-29T03:28:45.444Z,1.05
2022-07-29T03:29:38.798Z,0.90
2022-07-29T03:30:31.779Z,0.90
2022-07-29T03:31:23.877Z,0.90
2022-07-29T03:32:16.131Z,1.00
2022-07-29T03:33:15.718Z,0.90
2022-07-29T03:34:13.640Z,1.00
2022-07-29T03:35:06.191Z,0.95
2022-07-29T03:35:57.958Z,1.10
2022-07-29T03:36:49.802Z,1.00
2022-07-29T03:37:41.544Z,0.88
2022-07-29T03:38:35.047Z,1.00
2022-07-29T03:39:28.631Z,1.05
2022-07-29T03:40:27.184Z,1.00
2022-07-29T03:41:22.319Z,1.00
2022-07-29T03:42:16.026Z,1.00
2022-07-29T03:43:09.247Z,1.05
2022-07-29T03:44:01.222Z,1.10
2022-07-29T03:44:54.006Z,0.85
2022-07-29T03:45:47.304Z,1.00
2022-07-29T03:46:40.488Z,1.00
2022-07-29T03:47:43.498Z,0.80
2022-07-29T03:48:44.549Z,0.80
2022-07-29T03:49:37.675Z,0.88
2022-07-29T03:50:33.714Z,0.90
2022-07-29T03:51:34.041Z,0.80
2022-07-29T03:53:17.858Z,1.00
2022-07-29T03:54:10.437Z,0.90
2022-07-29T03:55:02.888Z,0.90
2022-07-29T03:55:56.342Z,0.77
2022-07-29T03:56:50.167Z,0.90
2022-07-29T03:57:42.827Z,0.80
2022-07-29T03:58:34.655Z,0.80
2022-07-29T03:59:27.301Z,1.00
2022-07-29T04:00:19.211Z,1.02
2022-07-29T04:01:12.427Z,1.00
2022-07-29T04:02:04.757Z,0.80
2022-07-29T04:02:57.232Z,0.70
2022-07-29T04:03:49.374Z,0.88
2022-07-29T04:04:41.195Z,1.02
2022-07-29T04:05:33.059Z,0.98
2022-07-29T04:06:24.864Z,0.90
2022-07-29T04:07:16.814Z,0.80
2022-07-29T04:08:08.543Z,0.90
2022-07-29T04:09:00.268Z,1.00
2022-07-29T04:09:52.023Z,1.00
2022-07-29T04:10:43.742Z,1.02
2022-07-29T04:12:03.269Z,0.80
2022-07-29T04:12:47.628Z,0.77
2022-07-29T04:13:39.390Z,0.88
2022-07-29T04:14:32.308Z,0.82
2022-07-29T04:15:24.147Z,1.00
2022-07-29T04:16:16.003Z,0.82
2022-07-29T04:17:11.941Z,1.00
2022-07-29T04:18:08.492Z,1.15
2022-07-29T04:19:00.305Z,0.90
2022-07-29T04:19:51.913Z,0.80
2022-07-29T04:20:43.610Z,0.95
2022-07-29T04:21:38.580Z,0.90
2022-07-29T04:22:30.312Z,0.90
2022-07-29T04:23:21.989Z,0.85
2022-07-29T04:24:14.292Z,1.00
2022-07-29T04:25:06.461Z,0.90
2022-07-29T04:25:58.126Z,0.80
2022-07-29T04:26:49.871Z,0.90
2022-07-29T04:28:01.846Z,0.65
2022-07-29T04:28:53.515Z,0.85
2022-07-29T04:29:56.721Z,0.90
2022-07-29T04:30:49.119Z,0.90
2022-07-29T04:31:40.965Z,0.98
2022-07-29T04:32:32.632Z,0.80
2022-07-29T04:33:24.951Z,0.80
2022-07-29T04:34:17.212Z,0.80
2022-07-29T04:35:09.227Z,1.05
2022-07-29T04:36:00.912Z,0.80
2022-07-29T04:36:52.834Z,0.88
2022-07-29T04:37:44.681Z,1.15
2022-07-29T04:38:36.478Z,0.80
2022-07-29T04:39:30.451Z,0.82
2022-07-29T04:40:22.346Z,0.93
2022-07-29T04:41:14.553Z,0.90
2022-07-29T04:42:06.352Z,0.70
2022-07-29T04:43:03.378Z,0.90
2022-07-29T04:43:58.877Z,0.98
2022-07-29T04:44:51.562Z,0.90
2022-07-29T04:45:43.692Z,0.95
2022-07-29T04:46:36.000Z,0.70
2022-07-29T04:47:28.084Z,1.00
2022-07-29T04:48:21.946Z,0.70
2022-07-29T04:49:16.202Z,1.00
2022-07-29T04:50:08.793Z,0.90
2022-07-29T04:51:00.457Z,0.70
2022-07-29T04:51:52.125Z,0.70
2022-07-29T04:52:43.946Z,0.90
2022-07-29T04:53:35.610Z,0.95
2022-07-29T04:54:27.350Z,0.88
2022-07-29T04:55:19.152Z,1.00
2022-07-29T04:56:10.805Z,0.70
2022-07-29T04:57:02.480Z,0.80
2022-07-29T04:57:54.117Z,0.80
2022-07-29T04:58:45.786Z,0.70
2022-07-29T04:59:37.486Z,0.80
2022-07-29T05:00:33.594Z,0.80
2022-07-29T05:01:25.579Z,0.80
2022-07-29T05:02:17.283Z,0.90
2022-07-29T05:03:09.119Z,0.95
2022-07-29T05:04:00.961Z,0.77
2022-07-29T05:04:52.740Z,0.80
2022-07-29T05:05:44.654Z,0.85
2022-07-29T05:06:36.330Z,0.80
2022-07-29T05:07:27.983Z,0.80
2022-07-29T05:08:19.656Z,0.98
2022-07-29T05:09:11.359Z,0.70
2022-07-29T05:10:03.750Z,0.90
2022-07-29T05:10:55.463Z,0.80
2022-07-29T05:11:47.323Z,1.00
2022-07-29T05:12:39.110Z,0.80
2022-07-29T05:13:45.187Z,0.73
2022-07-29T05:14:38.017Z,0.80
2022-07-29T05:15:30.348Z,0.75
2022-07-29T05:16:22.564Z,0.88
2022-07-29T05:17:14.240Z,0.90
2022-07-29T05:18:06.050Z,0.93
2022-07-29T05:18:57.813Z,0.90
2022-07-29T05:19:49.531Z,0.90
2022-07-29T05:20:41.338Z,0.80
2022-07-29T05:21:33.166Z,1.00
2022-07-29T05:22:24.805Z,0.85
2022-07-29T05:23:16.737Z,0.82
2022-07-29T05:24:09.061Z,0.90
2022-07-29T05:25:03.286Z,0.80
2022-07-29T05:25:59.281Z,0.80
2022-07-29T05:26:50.952Z,0.90
2022-07-29T05:27:42.624Z,0.80
2022-07-29T05:28:35.656Z,0.70
2022-07-29T05:29:42.536Z,0.90
2022-07-29T05:30:36.788Z,0.82
2022-07-29T05:31:28.608Z,0.77
2022-07-29T05:32:20.369Z,0.80
2022-07-29T05:33:35.090Z,0.68
2022-07-29T05:34:23.928Z,0.70
2022-07-29T05:35:15.940Z,0.90
2022-07-29T05:36:08.478Z,0.80
2022-07-29T05:37:01.022Z,0.65
2022-07-29T05:37:52.690Z,0.65
2022-07-29T05:38:44.419Z,0.80
2022-07-29T05:39:48.205Z,0.60
2022-07-29T05:40:40.864Z,0.70
2022-07-29T05:41:35.077Z,0.68
2022-07-29T05:42:26.883Z,0.80
2022-07-29T05:43:18.558Z,0.80
2022-07-29T05:44:10.215Z,0.70
2022-07-29T05:45:02.171Z,0.70
2022-07-29T05:45:53.882Z,0.60
2022-07-29T05:46:45.638Z,0.80
2022-07-29T05:47:38.044Z,0.68
2022-07-29T05:48:30.477Z,0.68
2022-07-29T05:49:26.880Z,0.80
2022-07-29T05:50:19.061Z,0.70
2022-07-29T05:51:11.247Z,0.70
2022-07-29T05:52:02.868Z,0.80
2022-07-29T05:52:54.573Z,0.70
2022-07-29T05:53:46.429Z,0.73
2022-07-29T05:54:38.217Z,0.77
2022-07-29T05:55:29.850Z,0.55
2022-07-29T05:56:21.490Z,0.70
2022-07-29T05:57:17.220Z,0.85
2022-07-29T05:58:08.939Z,0.80
2022-07-29T05:59:00.720Z,0.70
2022-07-29T05:59:52.618Z,0.52
2022-07-29T06:00:44.353Z,0.65
2022-07-29T06:01:40.458Z,0.50
2022-07-29T06:02:32.226Z,0.70
2022-07-29T06:03:23.866Z,0.57
2022-07-29T06:04:15.846Z,0.80
2022-07-29T06:05:12.867Z,0.68
2022-07-29T06:06:08.959Z,0.75
2022-07-29T06:07:00.608Z,0.80
2022-07-29T06:07:52.359Z,0.60
2022-07-29T06:08:43.989Z,0.68
2022-07-29T06:09:36.531Z,0.70
2022-07-29T06:10:28.240Z,0.80
2022-07-29T06:11:19.949Z,0.70
2022-07-29T06:12:11.666Z,0.70
2022-07-29T06:13:03.588Z,0.60
2022-07-29T06:13:55.308Z,0.70
2022-07-29T06:14:50.877Z,0.70
2022-07-29T06:15:45.503Z,0.77
2022-07-29T06:16:37.341Z,0.82
2022-07-29T06:17:29.065Z,0.70
2022-07-29T06:18:21.951Z,0.60
2022-07-29T06:19:13.645Z,0.60
2022-07-29T06:20:07.498Z,0.80
2022-07-29T06:20:59.332Z,0.70
2022-07-29T06:21:51.023Z,0.80
2022-07-29T06:22:42.660Z,0.70
2022-07-29T06:23:34.272Z,0.70
2022-07-29T06:24:25.968Z,0.70
2022-07-29T06:25:18.341Z,0.70
2022-07-29T06:26:10.015Z,0.88
2022-07-29T06:27:01.687Z,0.70
2022-07-29T06:27:53.535Z,0.60
2022-07-29T06:28:45.198Z,0.77
2022-07-29T06:29:37.060Z,0.80
2022-07-29T06:30:30.432Z,0.60
2022-07-29T06:31:22.286Z,0.70
2022-07-29T06:32:14.558Z,0.70
2022-07-29T06:33:06.674Z,0.57
2022-07-29T06:33:58.347Z,0.70
2022-07-29T06:34:50.195Z,0.60
2022-07-29T06:35:52.436Z,0.70
2022-07-29T06:36:45.472Z,0.70
2022-07-29T06:37:37.757Z,0.70
2022-07-29T06:38:33.925Z,0.60
2022-07-29T06:39:26.026Z,0.90
2022-07-29T06:40:36.224Z,0.80
2022-07-29T06:41:27.934Z,0.65
2022-07-29T06:42:19.594Z,0.70
2022-07-29T06:43:11.919Z,0.50
2022-07-29T06:44:03.684Z,0.75
2022-07-29T06:44:55.342Z,0.70
2022-07-29T06:45:47.010Z,0.60
2022-07-29T06:46:38.907Z,0.63
2022-07-29T06:47:30.731Z,0.60
2022-07-29T06:48:22.408Z,0.80
2022-07-29T06:49:15.729Z,0.70
2022-07-29T06:50:07.655Z,0.82
2022-07-29T06:51:00.111Z,0.60
2022-07-29T06:51:52.583Z,0.73
2022-07-29T06:52:44.271Z,0.60
2022-07-29T06:53:35.958Z,0.60
2022-07-29T06:54:28.269Z,0.60
2022-07-29T06:55:24.715Z,0.57
2022-07-29T06:56:17.062Z,0.50
2022-07-29T06:57:08.927Z,0.70
2022-07-29T06:58:00.602Z,0.77
2022-07-29T06:58:52.525Z,0.70
2022-07-29T06:59:44.332Z,0.68
2022-07-29T07:00:36.410Z,0.63
2022-07-29T07:01:28.132Z,0.65
2022-07-29T07:02:19.996Z,0.73
2022-07-29T07:03:11.908Z,0.63
2022-07-29T07:04:03.631Z,0.70
2022-07-29T07:04:55.919Z,0.70
2022-07-29T07:05:48.047Z,0.60
2022-07-29T07:06:39.794Z,0.80
2022-07-29T07:07:31.449Z,0.70
2022-07-29T07:08:24.061Z,0.82
2022-07-29T07:09:15.693Z,0.77
2022-07-29T07:10:07.723Z,0.70
2022-07-29T07:10:59.722Z,0.60
2022-07-29T07:11:51.444Z,0.70
2022-07-29T07:12:43.153Z,0.70
2022-07-29T07:13:36.524Z,0.60
2022-07-29T07:14:29.083Z,0.60
2022-07-29T07:15:38.462Z,0.63
2022-07-29T07:17:23.777Z,0.68
2022-07-29T07:18:15.965Z,0.70
2022-07-29T07:19:07.650Z,0.70
2022-07-29T07:19:59.306Z,0.60
2022-07-29T07:20:51.414Z,0.60
2022-07-29T07:21:43.058Z,0.70
2022-07-29T07:22:38.729Z,0.50
2022-07-29T07:23:30.926Z,0.63
2022-07-29T07:24:22.654Z,0.70
2022-07-29T07:25:14.490Z,0.65
2022-07-29T07:26:07.483Z,0.60
2022-07-29T07:27:02.275Z,0.65
2022-07-29T07:27:53.981Z,0.70
2022-07-29T07:28:45.619Z,0.70
2022-07-29T07:29:37.458Z,0.80
2022-07-29T07:30:29.221Z,0.70
2022-07-29T07:31:21.854Z,0.75
2022-07-29T07:32:14.574Z,0.70
2022-07-29T07:33:06.341Z,0.70
2022-07-29T07:33:58.049Z,0.70
2022-07-29T07:34:49.772Z,0.60
2022-07-29T07:35:42.345Z,0.60
2022-07-29T07:36:34.059Z,0.82
2022-07-29T07:37:25.920Z,0.70
2022-07-29T07:38:17.589Z,0.73
2022-07-29T07:39:09.241Z,0.65
2022-07-29T07:40:00.884Z,0.57
2022-07-29T07:40:52.609Z,0.82
2022-07-29T07:41:44.869Z,0.70
2022-07-29T07:42:36.692Z,0.60
2022-07-29T07:43:32.138Z,0.55
2022-07-29T07:44:24.032Z,0.65
2022-07-29T07:45:16.749Z,0.60
2022-07-29T07:46:08.690Z,0.70
2022-07-29T07:47:03.868Z,0.73
2022-07-29T07:48:04.491Z,0.70
2022-07-29T07:48:56.222Z,0.70
2022-07-29T07:49:48.476Z,0.57
2022-07-29T07:50:40.132Z,0.80
2022-07-29T07:51:32.012Z,0.55
2022-07-29T07:52:23.670Z,0.70
2022-07-29T07:53:15.465Z,0.68
2022-07-29T07:54:08.036Z,0.85
2022-07-29T07:54:59.704Z,0.50
2022-07-29T07:56:09.905Z,0.65
2022-07-29T07:57:02.917Z,0.68
2022-07-29T07:57:55.433Z,0.60
2022-07-29T07:58:47.086Z,0.60
2022-07-29T07:59:39.626Z,0.60
2022-07-29T08:00:31.256Z,0.50
2022-07-29T08:01:24.179Z,0.60
2022-07-29T08:02:16.171Z,0.60
2022-07-29T08:03:16.802Z,0.60
2022-07-29T08:04:09.196Z,0.70
2022-07-29T08:05:00.932Z,0.47
2022-07-29T08:05:53.099Z,0.60
2022-07-29T08:06:44.859Z,0.80
2022-07-29T08:07:36.886Z,0.60
2022-07-29T08:08:28.575Z,0.50
2022-07-29T08:09:29.140Z,0.60
2022-07-29T08:10:40.512Z,0.70
2022-07-29T08:11:33.400Z,0.70
2022-07-29T08:12:29.398Z,0.60
2022-07-29T08:13:22.271Z,0.60
2022-07-29T08:14:15.044Z,0.55
2022-07-29T08:15:08.789Z,0.73
2022-07-29T08:16:12.517Z,0.70
2022-07-29T08:17:04.454Z,0.60
2022-07-29T08:17:56.084Z,0.63
2022-07-29T08:18:50.329Z,0.70
2022-07-29T08:19:42.164Z,0.65
2022-07-29T08:20:36.572Z,0.52
2022-07-29T08:21:28.942Z,0.55
2022-07-29T08:22:20.881Z,0.60
2022-07-29T08:23:12.656Z,0.43
2022-07-29T08:24:22.922Z,0.60
2022-07-29T08:25:14.687Z,0.60
2022-07-29T08:26:11.564Z,0.75
2022-07-29T08:27:03.385Z,0.68
2022-07-29T08:27:55.009Z,0.45
2022-07-29T08:28:47.924Z,0.65
2022-07-29T08:29:39.858Z,0.60
2022-07-29T08:30:31.529Z,0.65
2022-07-29T08:31:23.268Z,0.63
2022-07-29T08:32:31.020Z,0.75
2022-07-29T08:33:26.862Z,0.60
2022-07-29T08:34:18.606Z,0.60
2022-07-29T08:35:16.126Z,0.70
2022-07-29T08:36:07.911Z,0.60
2022-07-29T08:36:59.716Z,0.68
2022-07-29T08:37:52.344Z,0.50
2022-07-29T08:38:44.080Z,0.73
2022-07-29T08:39:35.740Z,0.77
2022-07-29T08:40:30.619Z,0.52
2022-07-29T08:41:24.340Z,0.50
2022-07-29T08:42:17.797Z,0.70
2022-07-29T08:43:10.428Z,0.60
2022-07-29T08:44:02.156Z,0.70
2022-07-29T08:44:54.875Z,0.60
2022-07-29T08:45:49.184Z,0.65
2022-07-29T08:46:40.951Z,0.77
2022-07-29T08:47:32.590Z,0.70
2022-07-29T08:48:24.873Z,0.60
2022-07-29T08:49:18.115Z,0.60
2022-07-29T08:50:10.648Z,0.47
2022-07-29T08:51:02.821Z,0.60
2022-07-29T08:51:57.173Z,0.60
2022-07-29T08:52:50.231Z,0.60
2022-07-29T08:53:43.891Z,0.60
2022-07-29T08:54:35.666Z,0.60
2022-07-29T08:55:28.033Z,0.55
2022-07-29T08:56:20.876Z,0.73
2022-07-29T08:57:15.490Z,0.80
2022-07-29T08:58:10.037Z,0.50
2022-07-29T08:59:06.917Z,0.68
2022-07-29T09:00:02.497Z,0.60
2022-07-29T09:00:58.718Z,0.65
2022-07-29T09:01:53.756Z,0.65
2022-07-29T09:02:47.990Z,0.60
2022-07-29T09:03:40.919Z,0.60
2022-07-29T09:04:35.571Z,0.63
2022-07-29T09:05:27.680Z,0.60
2022-07-29T09:06:19.552Z,0.63
2022-07-29T09:07:11.243Z,0.50
2022-07-29T09:08:03.241Z,0.43
2022-07-29T09:08:56.093Z,0.70
2022-07-29T09:09:48.110Z,0.57
2022-07-29T09:10:39.857Z,0.50
2022-07-29T09:11:33.315Z,0.60
2022-07-29T09:12:29.442Z,0.60
2022-07-29T09:13:22.572Z,0.50
2022-07-29T09:14:14.719Z,0.40
2022-07-29T09:15:07.249Z,0.50
2022-07-29T09:15:59.095Z,0.50
2022-07-29T09:16:53.813Z,0.60
2022-07-29T09:17:47.037Z,0.45
2022-07-29T09:18:43.341Z,0.50
2022-07-29T09:19:36.169Z,0.47
2022-07-29T09:20:48.326Z,0.57
2022-07-29T09:22:00.419Z,0.47
2022-07-29T09:22:54.949Z,0.55
2022-07-29T09:24:01.546Z,0.57
2022-07-29T09:24:53.194Z,0.50
2022-07-29T09:25:44.903Z,0.70
2022-07-29T09:26:46.222Z,0.60
2022-07-29T09:27:37.949Z,0.45
2022-07-29T09:28:29.660Z,0.57
2022-07-29T09:29:22.574Z,0.70
2022-07-29T09:30:15.554Z,0.50
2022-07-29T09:31:17.399Z,0.60
2022-07-29T09:32:10.750Z,0.73
2022-07-29T09:33:03.921Z,0.60
2022-07-29T09:33:58.982Z,0.60
2022-07-29T09:34:50.681Z,0.52
2022-07-29T09:35:42.406Z,0.60
2022-07-29T09:36:50.073Z,0.68
2022-07-29T09:37:41.941Z,0.60
2022-07-29T09:38:34.493Z,0.60
2022-07-29T09:39:30.943Z,0.50
2022-07-29T09:40:23.705Z,0.55
2022-07-29T09:41:15.404Z,0.52
2022-07-29T09:42:07.480Z,0.60
2022-07-29T09:43:01.098Z,0.65
2022-07-29T09:43:59.875Z,0.60
2022-07-29T09:44:51.928Z,0.38
2022-07-29T09:45:43.750Z,0.60
2022-07-29T09:46:38.386Z,0.50
2022-07-29T09:47:43.718Z,0.47
2022-07-29T09:48:35.798Z,0.60
2022-07-29T09:49:28.314Z,0.60
2022-07-29T09:50:24.951Z,0.63
2022-07-29T09:51:24.097Z,0.75
2022-07-29T09:52:18.517Z,0.65
2022-07-29T09:53:11.269Z,0.57
2022-07-29T09:54:05.748Z,0.60
2022-07-29T09:55:10.191Z,0.50
2022-07-29T09:56:06.147Z,0.57
2022-07-29T09:56:58.102Z,0.57
2022-07-29T09:57:49.952Z,0.57
2022-07-29T09:58:41.773Z,0.60
2022-07-29T09:59:34.249Z,0.50
2022-07-29T10:00:26.615Z,0.50
2022-07-29T10:01:28.424Z,0.45
2022-07-29T10:02:23.493Z,0.57
2022-07-29T10:03:16.813Z,0.40
2022-07-29T10:04:08.624Z,0.52
2022-07-29T10:05:01.370Z,0.70
2022-07-29T10:06:06.014Z,0.55
2022-07-29T10:07:04.736Z,0.60
2022-07-29T10:07:58.765Z,0.63
2022-07-29T10:08:50.990Z,0.52
2022-07-29T10:10:07.046Z,0.70
2022-07-29T10:11:11.006Z,0.50
2022-07-29T10:12:06.155Z,0.50
2022-07-29T10:13:06.443Z,0.60
2022-07-29T10:14:02.786Z,0.50
2022-07-29T10:14:54.510Z,0.60
2022-07-29T10:15:47.986Z,0.60
2022-07-29T10:16:39.756Z,0.50
2022-07-29T10:17:31.737Z,0.52
2022-07-29T10:18:41.890Z,0.55
2022-07-29T10:19:34.429Z,0.70
2022-07-29T10:20:26.819Z,0.60
2022-07-29T10:21:34.886Z,0.50
2022-07-29T10:22:51.851Z,0.50
2022-07-29T10:23:46.561Z,0.52
2022-07-29T10:24:40.642Z,0.50
2022-07-29T10:25:32.755Z,0.60
2022-07-29T10:26:24.875Z,0.50
2022-07-29T10:27:16.693Z,0.60
2022-07-29T10:28:11.214Z,0.52
2022-07-29T10:29:04.986Z,0.60
2022-07-29T10:29:59.276Z,0.50
2022-07-29T10:30:51.951Z,0.50
2022-07-29T10:32:02.379Z,0.50
2022-07-29T10:33:09.013Z,0.50
2022-07-29T10:34:03.773Z,0.55
2022-07-29T10:35:05.912Z,0.60
2022-07-29T10:36:16.352Z,0.40
2022-07-29T10:37:50.219Z,0.40
2022-07-29T10:38:51.450Z,0.60
2022-07-29T10:39:56.160Z,0.60
2022-07-29T10:41:19.623Z,0.70
2022-07-29T10:42:14.650Z,0.40
2022-07-29T10:45:56.423Z,0.50
2022-07-29T10:46:53.646Z,0.70
2022-07-29T10:47:46.406Z,0.95
2022-07-29T10:49:01.487Z,0.63
2022-07-29T10:49:57.524Z,0.68
2022-07-29T10:51:04.196Z,0.50
2022-07-29T10:51:59.501Z,0.60
2022-07-29T10:52:51.501Z,0.50
2022-07-29T10:53:53.411Z,0.55
2022-07-29T10:54:54.889Z,0.68
2022-07-29T10:55:57.398Z,0.80
2022-07-29T10:56:52.322Z,0.60
2022-07-29T10:58:07.177Z,0.47
2022-07-29T10:59:17.843Z,0.70
2022-07-29T11:00:17.196Z,0.57
2022-07-29T11:01:37.420Z,0.50
2022-07-29T11:03:49.559Z,0.60
2022-07-29T11:04:45.420Z,0.52
2022-07-29T11:05:55.426Z,0.65
2022-07-29T11:07:10.380Z,0.50
2022-07-29T11:08:20.534Z,0.70
2022-07-29T11:09:25.947Z,0.55
2022-07-29T11:10:31.242Z,0.83
2022-07-29T11:11:29.794Z,0.70
2022-07-29T11:12:52.268Z,0.60
2022-07-29T11:13:52.227Z,0.60
2022-07-29T11:14:52.854Z,0.60
2022-07-29T11:15:54.195Z,0.47
2022-07-29T11:17:02.362Z,0.75
2022-07-29T11:17:59.507Z,0.60
2022-07-29T11:19:10.535Z,0.70
2022-07-29T11:20:21.110Z,0.68
2022-07-29T11:21:54.132Z,0.55
2022-07-29T11:22:47.291Z,0.70
2022-07-29T11:23:42.875Z,0.70
2022-07-29T11:24:35.858Z,0.70
2022-07-29T11:26:39.800Z,1.00
2022-07-29T11:27:40.663Z,0.70
2022-07-29T11:28:32.639Z,0.80
2022-07-29T11:29:24.409Z,1.40
2022-07-29T11:30:16.329Z,0.93
2022-07-29T11:31:10.888Z,0.98
2022-07-29T11:32:15.748Z,0.85
2022-07-29T11:33:54.037Z,1.10
2022-07-29T11:34:42.619Z,1.00
2022-07-29T11:37:04.515Z,1.00
2022-07-29T11:38:14.981Z,1.17
2022-07-29T11:39:36.384Z,1.13
2022-07-29T11:40:29.577Z,0.98
2022-07-29T11:41:25.936Z,1.10
2022-07-29T11:42:32.577Z,1.02
2022-07-29T11:43:55.181Z,1.30
2022-07-29T11:45:41.520Z,1.10
2022-07-29T11:46:38.914Z,1.02
2022-07-29T11:47:31.214Z,1.20
2022-07-29T11:48:32.435Z,1.23
2022-07-29T11:49:32.005Z,1.00
2022-07-29T11:50:32.310Z,1.05
2022-07-29T11:51:32.795Z,1.25
2022-07-29T11:52:25.311Z,1.10
2022-07-29T11:53:17.323Z,1.27
2022-07-29T11:54:15.693Z,1.27
2022-07-29T11:55:09.634Z,1.20
2022-07-29T11:56:02.417Z,1.00
2022-07-29T11:56:55.107Z,1.35
2022-07-29T11:58:03.961Z,0.90
2022-07-29T11:59:06.156Z,1.05
2022-07-29T12:00:04.746Z,1.40
2022-07-29T12:01:04.645Z,1.10
2022-07-29T12:02:18.492Z,1.10
2022-07-29T12:03:11.123Z,1.00
2022-07-29T12:04:07.894Z,1.10
2022-07-29T12:05:00.655Z,1.33
2022-07-29T12:06:02.774Z,1.08
2022-07-29T12:06:55.025Z,1.10
2022-07-29T12:07:01.567Z,1.20
2022-07-29T12:07:47.283Z,1.20
2022-07-29T12:08:43.866Z,1.10
2022-07-29T12:09:40.341Z,1.33
2022-07-29T12:10:33.541Z,0.98
2022-07-29T12:11:25.323Z,1.00
2022-07-29T12:12:18.158Z,1.20
2022-07-29T12:13:10.455Z,1.20
2022-07-29T12:14:03.701Z,1.20
2022-07-29T12:14:56.454Z,1.10
2022-07-29T12:15:54.543Z,1.00
2022-07-29T12:16:46.443Z,1.02
2022-07-29T12:17:38.551Z,1.02
2022-07-29T12:18:30.733Z,1.17
2022-07-29T12:19:22.526Z,1.13
2022-07-29T12:20:22.687Z,1.17
2022-07-29T12:21:14.461Z,1.27
2022-07-29T12:22:06.230Z,1.30